sensor_id;sensor_type;location;lat;lon;timestamp;pressure;altitude;pressure_sealevel;temperature;humidity
15604;BME280;7902;49.042;9.092;2023-02-11T00:00:16;101137.81;;;4.42;55.40
15604;BME280;7902;49.042;9.092;2023-02-11T00:02:42;101133.47;;;4.43;55.57
15604;BME280;7902;49.042;9.092;2023-02-11T00:05:08;101130.66;;;4.56;55.03
15604;BME280;7902;49.042;9.092;2023-02-11T00:07:34;101134.16;;;4.52;55.15
15604;BME280;7902;49.042;9.092;2023-02-11T00:10:00;101133.19;;;4.59;55.45
15604;BME280;7902;49.042;9.092;2023-02-11T00:12:33;101131.59;;;4.51;55.24
15604;BME280;7902;49.042;9.092;2023-02-11T00:14:59;101134.22;;;4.49;55.29
15604;BME280;7902;49.042;9.092;2023-02-11T00:17:25;101137.69;;;4.48;55.18
15604;BME280;7902;49.042;9.092;2023-02-11T00:19:51;101140.41;;;4.42;55.58
15604;BME280;7902;49.042;9.092;2023-02-11T00:22:18;101128.28;;;4.39;55.22
15604;BME280;7902;49.042;9.092;2023-02-11T00:24:44;101137.94;;;4.33;55.81
15604;BME280;7902;49.042;9.092;2023-02-11T00:27:10;101139.28;;;4.58;55.09
15604;BME280;7902;49.042;9.092;2023-02-11T00:29:37;101136.88;;;4.45;55.53
15604;BME280;7902;49.042;9.092;2023-02-11T00:32:04;101148.28;;;4.36;55.56
15604;BME280;7902;49.042;9.092;2023-02-11T00:34:39;101148.28;;;4.36;55.75
15604;BME280;7902;49.042;9.092;2023-02-11T00:37:05;101152.66;;;4.34;55.70
15604;BME280;7902;49.042;9.092;2023-02-11T00:39:31;101150.03;;;4.37;55.47
15604;BME280;7902;49.042;9.092;2023-02-11T00:41:57;101150.09;;;4.31;55.78
15604;BME280;7902;49.042;9.092;2023-02-11T00:44:23;101143.19;;;4.30;56.01
15604;BME280;7902;49.042;9.092;2023-02-11T00:46:49;101132.75;;;4.33;56.34
15604;BME280;7902;49.042;9.092;2023-02-11T00:49:16;101128.13;;;4.52;55.14
15604;BME280;7902;49.042;9.092;2023-02-11T00:51:42;101123.94;;;4.40;55.51
15604;BME280;7902;49.042;9.092;2023-02-11T00:54:07;101117.00;;;4.40;55.71
15604;BME280;7902;49.042;9.092;2023-02-11T00:56:33;101114.31;;;4.47;55.26
15604;BME280;7902;49.042;9.092;2023-02-11T00:58:59;101109.09;;;4.48;55.55
15604;BME280;7902;49.042;9.092;2023-02-11T01:01:26;101110.00;;;4.47;55.82
15604;BME280;7902;49.042;9.092;2023-02-11T01:03:52;101107.63;;;4.29;55.72
15604;BME280;7902;49.042;9.092;2023-02-11T01:06:18;101105.91;;;4.29;55.68
15604;BME280;7902;49.042;9.092;2023-02-11T01:08:44;101111.09;;;4.29;55.84
15604;BME280;7902;49.042;9.092;2023-02-11T01:11:18;101111.09;;;4.31;55.88
15604;BME280;7902;49.042;9.092;2023-02-11T01:13:45;101104.06;;;4.36;55.91
15604;BME280;7902;49.042;9.092;2023-02-11T01:16:12;101106.75;;;4.33;55.71
15604;BME280;7902;49.042;9.092;2023-02-11T01:18:39;101098.00;;;4.35;55.62
15604;BME280;7902;49.042;9.092;2023-02-11T01:21:06;101099.59;;;4.44;55.88
15604;BME280;7902;49.042;9.092;2023-02-11T01:23:32;101095.28;;;4.43;55.60
15604;BME280;7902;49.042;9.092;2023-02-11T01:25:58;101092.59;;;4.48;55.26
15604;BME280;7902;49.042;9.092;2023-02-11T01:28:27;101100.59;;;4.37;55.70
15604;BME280;7902;49.042;9.092;2023-02-11T01:30:54;101101.31;;;4.47;55.49
15604;BME280;7902;49.042;9.092;2023-02-11T01:33:21;101104.81;;;4.44;55.41
15604;BME280;7902;49.042;9.092;2023-02-11T01:35:47;101091.88;;;4.41;55.28
15604;BME280;7902;49.042;9.092;2023-02-11T01:38:22;101092.75;;;4.40;55.68
15604;BME280;7902;49.042;9.092;2023-02-11T01:40:52;101107.47;;;4.39;55.46
15604;BME280;7902;49.042;9.092;2023-02-11T01:43:20;101111.03;;;4.34;55.76
15604;BME280;7902;49.042;9.092;2023-02-11T01:48:15;101113.03;;;4.18;55.86
15604;BME280;7902;49.042;9.092;2023-02-11T01:50:45;101102.56;;;4.20;56.25
15604;BME280;7902;49.042;9.092;2023-02-11T01:53:12;101093.72;;;4.33;56.33
15604;BME280;7902;49.042;9.092;2023-02-11T01:55:57;101085.94;;;4.33;56.11
15604;BME280;7902;49.042;9.092;2023-02-11T01:58:43;101085.97;;;4.30;56.02
15604;BME280;7902;49.042;9.092;2023-02-11T02:01:12;101087.69;;;4.31;55.99
15604;BME280;7902;49.042;9.092;2023-02-11T02:03:43;101087.47;;;4.45;55.63
15604;BME280;7902;49.042;9.092;2023-02-11T02:06:21;101089.28;;;4.38;55.87
15604;BME280;7902;49.042;9.092;2023-02-11T02:09:00;101085.72;;;4.47;55.53
15604;BME280;7902;49.042;9.092;2023-02-11T02:11:27;101094.31;;;4.52;55.22
15604;BME280;7902;49.042;9.092;2023-02-11T02:17:37;101079.09;;;4.24;55.95
15604;BME280;7902;49.042;9.092;2023-02-11T02:37:35;101019.13;;;4.36;55.77
15604;BME280;7902;49.042;9.092;2023-02-11T02:40:18;101027.72;;;4.38;55.72
15604;BME280;7902;49.042;9.092;2023-02-11T02:42:46;101019.91;;;4.40;55.82
15604;BME280;7902;49.042;9.092;2023-02-11T02:45:12;101015.44;;;4.48;55.54
15604;BME280;7902;49.042;9.092;2023-02-11T02:47:39;101015.16;;;4.65;55.03
15604;BME280;7902;49.042;9.092;2023-02-11T02:50:07;101013.56;;;4.56;55.24
15604;BME280;7902;49.042;9.092;2023-02-11T03:00:31;100999.50;;;4.66;55.24
15604;BME280;7902;49.042;9.092;2023-02-11T03:03:21;100992.28;;;4.80;54.81
15604;BME280;7902;49.042;9.092;2023-02-11T03:06:02;100991.59;;;4.71;55.14
15604;BME280;7902;49.042;9.092;2023-02-11T03:08:40;100988.97;;;4.72;55.30
15604;BME280;7902;49.042;9.092;2023-02-11T03:11:09;100989.09;;;4.66;55.37
15604;BME280;7902;49.042;9.092;2023-02-11T03:13:38;100994.06;;;4.78;54.58
15604;BME280;7902;49.042;9.092;2023-02-11T03:16:11;100994.88;;;4.80;54.70
15604;BME280;7902;49.042;9.092;2023-02-11T03:18:41;100999.03;;;4.91;54.91
15604;BME280;7902;49.042;9.092;2023-02-11T03:21:10;100999.25;;;4.80;54.81
15604;BME280;7902;49.042;9.092;2023-02-11T03:23:44;100994.16;;;4.75;54.99
15604;BME280;7902;49.042;9.092;2023-02-11T03:26:24;100992.72;;;4.58;55.25
15604;BME280;7902;49.042;9.092;2023-02-11T03:29:02;100990.97;;;4.58;55.75
15604;BME280;7902;49.042;9.092;2023-02-11T03:32:16;100991.84;;;4.57;55.84
15604;BME280;7902;49.042;9.092;2023-02-11T03:34:58;100997.97;;;4.55;55.85
15604;BME280;7902;49.042;9.092;2023-02-11T03:37:38;101010.91;;;4.59;55.90
15604;BME280;7902;49.042;9.092;2023-02-11T03:40:11;101006.47;;;4.66;55.35
15604;BME280;7902;49.042;9.092;2023-02-11T03:42:41;101003.00;;;4.65;55.54
15604;BME280;7902;49.042;9.092;2023-02-11T03:45:11;101005.63;;;4.62;55.65
15604;BME280;7902;49.042;9.092;2023-02-11T03:47:44;101014.38;;;4.58;55.58
15604;BME280;7902;49.042;9.092;2023-02-11T03:50:11;101015.25;;;4.59;55.70
15604;BME280;7902;49.042;9.092;2023-02-11T03:52:39;101013.50;;;4.59;55.87
15604;BME280;7902;49.042;9.092;2023-02-11T03:55:10;101021.38;;;4.56;55.60
15604;BME280;7902;49.042;9.092;2023-02-11T03:57:37;101030.72;;;4.66;55.53
15604;BME280;7902;49.042;9.092;2023-02-11T04:00:05;101027.38;;;4.61;55.79
15604;BME280;7902;49.042;9.092;2023-02-11T04:02:33;101028.41;;;4.51;56.04
15604;BME280;7902;49.042;9.092;2023-02-11T04:05:00;101021.41;;;4.53;56.18
15604;BME280;7902;49.042;9.092;2023-02-11T04:07:26;101028.44;;;4.48;56.18
15604;BME280;7902;49.042;9.092;2023-02-11T04:09:52;101018.88;;;4.50;56.42
15604;BME280;7902;49.042;9.092;2023-02-11T04:12:19;101015.34;;;4.54;56.15
15604;BME280;7902;49.042;9.092;2023-02-11T04:14:45;100998.78;;;4.58;56.02
15604;BME280;7902;49.042;9.092;2023-02-11T04:17:11;101004.84;;;4.57;55.97
15604;BME280;7902;49.042;9.092;2023-02-11T04:19:37;100996.75;;;4.75;55.67
15604;BME280;7902;49.042;9.092;2023-02-11T04:22:03;101000.09;;;4.80;55.52
15604;BME280;7902;49.042;9.092;2023-02-11T04:24:29;101006.13;;;4.84;55.77
15604;BME280;7902;49.042;9.092;2023-02-11T04:26:55;100999.94;;;4.90;55.52
15604;BME280;7902;49.042;9.092;2023-02-11T04:29:21;101008.63;;;4.89;55.39
15604;BME280;7902;49.042;9.092;2023-02-11T04:31:47;101000.84;;;4.89;55.01
15604;BME280;7902;49.042;9.092;2023-02-11T04:34:13;101011.25;;;4.87;55.16
15604;BME280;7902;49.042;9.092;2023-02-11T04:36:40;101016.22;;;4.99;55.19
15604;BME280;7902;49.042;9.092;2023-02-11T04:39:06;101012.88;;;4.94;55.16
15604;BME280;7902;49.042;9.092;2023-02-11T04:41:32;101018.19;;;4.88;55.41
15604;BME280;7902;49.042;9.092;2023-02-11T04:43:58;101023.16;;;5.00;55.20
15604;BME280;7902;49.042;9.092;2023-02-11T04:46:24;101021.44;;;4.99;55.03
15604;BME280;7902;49.042;9.092;2023-02-11T04:48:49;101015.41;;;4.99;55.09
15604;BME280;7902;49.042;9.092;2023-02-11T04:51:15;101005.78;;;5.02;55.11
15604;BME280;7902;49.042;9.092;2023-02-11T04:53:41;100990.16;;;5.02;55.22
15604;BME280;7902;49.042;9.092;2023-02-11T04:56:07;100988.53;;;4.95;55.09
15604;BME280;7902;49.042;9.092;2023-02-11T04:58:33;100979.88;;;4.95;55.66
15604;BME280;7902;49.042;9.092;2023-02-11T05:01:11;100978.78;;;5.05;55.15
15604;BME280;7902;49.042;9.092;2023-02-11T05:03:37;100974.72;;;4.92;55.38
15604;BME280;7902;49.042;9.092;2023-02-11T05:06:03;100970.28;;;4.97;54.99
15604;BME280;7902;49.042;9.092;2023-02-11T05:08:30;100969.59;;;4.89;55.34
15604;BME280;7902;49.042;9.092;2023-02-11T05:10:56;100959.88;;;4.97;55.49
15604;BME280;7902;49.042;9.092;2023-02-11T05:13:22;100965.66;;;5.12;54.81
15604;BME280;7902;49.042;9.092;2023-02-11T05:15:48;100952.56;;;5.14;54.63
15604;BME280;7902;49.042;9.092;2023-02-11T05:18:14;100949.88;;;5.18;54.76
15604;BME280;7902;49.042;9.092;2023-02-11T05:20:41;100946.56;;;5.10;55.06
15604;BME280;7902;49.042;9.092;2023-02-11T05:23:07;100949.19;;;5.10;54.85
15604;BME280;7902;49.042;9.092;2023-02-11T05:25:33;100950.91;;;5.11;54.87
15604;BME280;7902;49.042;9.092;2023-02-11T05:27:59;100951.91;;;5.04;55.42
15604;BME280;7902;49.042;9.092;2023-02-11T05:30:26;100955.47;;;5.00;55.01
15604;BME280;7902;49.042;9.092;2023-02-11T05:32:52;100965.84;;;5.02;55.39
15604;BME280;7902;49.042;9.092;2023-02-11T05:35:18;100966.69;;;5.04;55.41
15604;BME280;7902;49.042;9.092;2023-02-11T05:37:44;100975.13;;;5.15;54.94
15604;BME280;7902;49.042;9.092;2023-02-11T05:40:10;100988.34;;;5.06;55.06
15604;BME280;7902;49.042;9.092;2023-02-11T05:42:36;100992.47;;;5.16;55.17
15604;BME280;7902;49.042;9.092;2023-02-11T05:45:02;100990.88;;;5.09;55.34
15604;BME280;7902;49.042;9.092;2023-02-11T05:47:28;100989.94;;;5.13;55.33
15604;BME280;7902;49.042;9.092;2023-02-11T05:49:54;101002.03;;;5.15;55.34
15604;BME280;7902;49.042;9.092;2023-02-11T05:52:21;101003.69;;;5.19;54.83
15604;BME280;7902;49.042;9.092;2023-02-11T05:54:47;100997.50;;;5.25;54.68
15604;BME280;7902;49.042;9.092;2023-02-11T05:57:13;100985.72;;;5.06;55.65
15604;BME280;7902;49.042;9.092;2023-02-11T05:59:40;100981.88;;;5.25;54.76
15604;BME280;7902;49.042;9.092;2023-02-11T06:02:07;100981.94;;;5.22;55.19
15604;BME280;7902;49.042;9.092;2023-02-11T06:04:33;100968.75;;;5.28;54.48
15604;BME280;7902;49.042;9.092;2023-02-11T06:06:59;100975.88;;;5.20;54.97
15604;BME280;7902;49.042;9.092;2023-02-11T06:09:25;100974.34;;;5.11;55.50
15604;BME280;7902;49.042;9.092;2023-02-11T06:11:52;100973.28;;;5.20;55.04
15604;BME280;7902;49.042;9.092;2023-02-11T06:14:18;100977.53;;;5.24;55.18
15604;BME280;7902;49.042;9.092;2023-02-11T06:16:44;100967.88;;;5.29;55.23
15604;BME280;7902;49.042;9.092;2023-02-11T06:19:11;100967.81;;;5.32;54.79
15604;BME280;7902;49.042;9.092;2023-02-11T06:21:37;100966.88;;;5.36;55.12
15604;BME280;7902;49.042;9.092;2023-02-11T06:24:05;100962.66;;;5.29;54.87
15604;BME280;7902;49.042;9.092;2023-02-11T06:26:31;100968.56;;;5.37;54.57
15604;BME280;7902;49.042;9.092;2023-02-11T06:29:00;100958.91;;;5.42;54.81
15604;BME280;7902;49.042;9.092;2023-02-11T06:31:26;100964.13;;;5.42;54.75
15604;BME280;7902;49.042;9.092;2023-02-11T06:33:52;100966.72;;;5.42;54.19
15604;BME280;7902;49.042;9.092;2023-02-11T06:36:20;100958.88;;;5.45;54.81
15604;BME280;7902;49.042;9.092;2023-02-11T06:38:47;100970.38;;;5.34;54.96
15604;BME280;7902;49.042;9.092;2023-02-11T06:41:15;100970.25;;;5.40;54.33
15604;BME280;7902;49.042;9.092;2023-02-11T06:43:42;100972.91;;;5.38;54.56
15604;BME280;7902;49.042;9.092;2023-02-11T06:46:08;100975.47;;;5.40;54.67
15604;BME280;7902;49.042;9.092;2023-02-11T06:48:34;100989.41;;;5.37;54.85
15604;BME280;7902;49.042;9.092;2023-02-11T06:51:05;100983.31;;;5.38;54.63
15604;BME280;7902;49.042;9.092;2023-02-11T06:53:37;100984.19;;;5.37;55.21
15604;BME280;7902;49.042;9.092;2023-02-11T06:56:08;100979.91;;;5.36;54.92
15604;BME280;7902;49.042;9.092;2023-02-11T06:58:34;100977.41;;;5.32;55.07
15604;BME280;7902;49.042;9.092;2023-02-11T07:01:08;100970.28;;;5.38;54.88
15604;BME280;7902;49.042;9.092;2023-02-11T07:03:36;100980.78;;;5.35;55.25
15604;BME280;7902;49.042;9.092;2023-02-11T07:06:03;100985.91;;;5.40;54.89
15604;BME280;7902;49.042;9.092;2023-02-11T07:08:32;100985.78;;;5.46;55.08
15604;BME280;7902;49.042;9.092;2023-02-11T07:10:59;100986.69;;;5.42;54.60
15604;BME280;7902;49.042;9.092;2023-02-11T07:13:25;100989.97;;;5.51;54.81
15604;BME280;7902;49.042;9.092;2023-02-11T07:15:51;101004.03;;;5.44;54.41
15604;BME280;7902;49.042;9.092;2023-02-11T07:18:17;101007.63;;;5.37;54.19
15604;BME280;7902;49.042;9.092;2023-02-11T07:20:43;101007.28;;;5.55;54.51
15604;BME280;7902;49.042;9.092;2023-02-11T07:23:08;101000.28;;;5.57;54.68
15604;BME280;7902;49.042;9.092;2023-02-11T07:25:35;101003.84;;;5.53;54.38
15604;BME280;7902;49.042;9.092;2023-02-11T07:28:02;100998.09;;;5.38;54.32
15604;BME280;7902;49.042;9.092;2023-02-11T07:30:28;100992.69;;;5.47;54.88
15604;BME280;7902;49.042;9.092;2023-02-11T07:32:55;100993.50;;;5.50;54.59
15604;BME280;7902;49.042;9.092;2023-02-11T07:35:21;100976.84;;;5.56;54.59
15604;BME280;7902;49.042;9.092;2023-02-11T07:37:47;100976.19;;;5.46;54.67
15604;BME280;7902;49.042;9.092;2023-02-11T07:40:13;100980.56;;;5.46;55.16
15604;BME280;7902;49.042;9.092;2023-02-11T07:42:39;100972.97;;;5.35;55.01
15604;BME280;7902;49.042;9.092;2023-02-11T07:45:06;100959.09;;;5.33;55.56
15604;BME280;7902;49.042;9.092;2023-02-11T07:47:33;100951.94;;;5.44;55.88
15604;BME280;7902;49.042;9.092;2023-02-11T07:49:59;100955.63;;;5.34;55.41
15604;BME280;7902;49.042;9.092;2023-02-11T07:52:28;100954.75;;;5.35;55.83
15604;BME280;7902;49.042;9.092;2023-02-11T07:54:55;100958.53;;;5.20;55.96
15604;BME280;7902;49.042;9.092;2023-02-11T07:57:21;100951.19;;;5.38;55.39
15604;BME280;7902;49.042;9.092;2023-02-11T07:59:47;100962.66;;;5.29;55.65
15604;BME280;7902;49.042;9.092;2023-02-11T08:02:13;100973.84;;;5.36;55.84
15604;BME280;7902;49.042;9.092;2023-02-11T08:04:39;100979.53;;;5.51;55.50
15604;BME280;7902;49.042;9.092;2023-02-11T08:07:05;100996.03;;;5.53;55.66
15604;BME280;7902;49.042;9.092;2023-02-11T08:09:32;100982.06;;;5.56;55.36
15604;BME280;7902;49.042;9.092;2023-02-11T08:11:58;100975.84;;;5.61;54.98
15604;BME280;7902;49.042;9.092;2023-02-11T08:14:24;100976.72;;;5.62;54.88
15604;BME280;7902;49.042;9.092;2023-02-11T08:16:51;100977.66;;;5.59;55.39
15604;BME280;7902;49.042;9.092;2023-02-11T08:19:17;100974.88;;;5.65;54.57
15604;BME280;7902;49.042;9.092;2023-02-11T08:21:43;100974.00;;;5.66;55.03
15604;BME280;7902;49.042;9.092;2023-02-11T08:24:09;100966.50;;;5.53;55.34
15604;BME280;7902;49.042;9.092;2023-02-11T08:26:36;100969.88;;;5.56;55.04
15604;BME280;7902;49.042;9.092;2023-02-11T08:29:07;100958.31;;;5.69;55.04
15604;BME280;7902;49.042;9.092;2023-02-11T08:31:36;100954.78;;;5.70;54.53
15604;BME280;7902;49.042;9.092;2023-02-11T08:34:03;100951.41;;;5.67;55.37
15604;BME280;7902;49.042;9.092;2023-02-11T08:36:31;100963.44;;;5.72;55.91
15604;BME280;7902;49.042;9.092;2023-02-11T08:39:02;100954.63;;;5.78;54.73
15604;BME280;7902;49.042;9.092;2023-02-11T08:41:30;100973.66;;;5.82;54.98
15604;BME280;7902;49.042;9.092;2023-02-11T08:43:57;100978.78;;;5.88;54.93
15604;BME280;7902;49.042;9.092;2023-02-11T08:46:23;100977.69;;;5.96;54.60
15604;BME280;7902;49.042;9.092;2023-02-11T08:48:49;100970.97;;;5.85;54.88
15604;BME280;7902;49.042;9.092;2023-02-11T08:51:17;100961.28;;;5.91;55.46
15604;BME280;7902;49.042;9.092;2023-02-11T08:53:45;100963.78;;;5.97;54.69
15604;BME280;7902;49.042;9.092;2023-02-11T08:56:12;100969.13;;;5.91;54.03
15604;BME280;7902;49.042;9.092;2023-02-11T08:58:39;100966.41;;;5.96;54.73
15604;BME280;7902;49.042;9.092;2023-02-11T09:01:25;100965.56;;;5.94;54.12
15604;BME280;7902;49.042;9.092;2023-02-11T09:03:51;100968.13;;;5.97;53.97
15604;BME280;7902;49.042;9.092;2023-02-11T09:06:18;100969.75;;;6.01;54.28
15604;BME280;7902;49.042;9.092;2023-02-11T09:08:47;100969.69;;;6.04;55.87
15604;BME280;7902;49.042;9.092;2023-02-11T09:11:15;100964.69;;;5.95;54.45
15604;BME280;7902;49.042;9.092;2023-02-11T09:13:42;100967.13;;;6.02;54.31
15604;BME280;7902;49.042;9.092;2023-02-11T09:16:15;100967.16;;;6.01;54.80
15604;BME280;7902;49.042;9.092;2023-02-11T09:18:41;100972.38;;;5.99;56.13
15604;BME280;7902;49.042;9.092;2023-02-11T09:21:08;100982.03;;;5.96;54.87
15604;BME280;7902;49.042;9.092;2023-02-11T09:23:34;100982.94;;;5.95;55.88
15604;BME280;7902;49.042;9.092;2023-02-11T09:26:07;100980.81;;;6.12;54.39
15604;BME280;7902;49.042;9.092;2023-02-11T09:28:34;100974.88;;;6.05;54.89
15604;BME280;7902;49.042;9.092;2023-02-11T09:31:08;100961.81;;;6.05;54.77
15604;BME280;7902;49.042;9.092;2023-02-11T09:33:34;100964.19;;;6.16;56.05
15604;BME280;7902;49.042;9.092;2023-02-11T09:36:02;100967.00;;;6.07;56.82
15604;BME280;7902;49.042;9.092;2023-02-11T09:38:28;100961.44;;;6.21;56.48
15604;BME280;7902;49.042;9.092;2023-02-11T09:40:54;100971.69;;;6.28;55.74
15604;BME280;7902;49.042;9.092;2023-02-11T09:43:37;100975.00;;;6.35;56.22
15604;BME280;7902;49.042;9.092;2023-02-11T09:46:14;100985.47;;;6.33;54.14
15604;BME280;7902;49.042;9.092;2023-02-11T09:48:42;100979.38;;;6.34;54.77
15604;BME280;7902;49.042;9.092;2023-02-11T09:51:30;100984.59;;;6.33;54.86
15604;BME280;7902;49.042;9.092;2023-02-11T09:54:04;100990.91;;;6.24;54.26
15604;BME280;7902;49.042;9.092;2023-02-11T09:56:32;100990.09;;;6.22;54.95
15604;BME280;7902;49.042;9.092;2023-02-11T09:58:58;100994.50;;;6.20;55.00
15604;BME280;7902;49.042;9.092;2023-02-11T10:01:38;100999.56;;;6.26;56.26
15604;BME280;7902;49.042;9.092;2023-02-11T10:06:46;100986.69;;;6.20;55.60
15604;BME280;7902;49.042;9.092;2023-02-11T10:09:17;100985.56;;;6.30;56.17
15604;BME280;7902;49.042;9.092;2023-02-11T10:12:11;100989.03;;;6.31;56.13
15604;BME280;7902;49.042;9.092;2023-02-11T10:20:44;100991.22;;;6.78;56.54
15604;BME280;7902;49.042;9.092;2023-02-11T10:23:40;100984.06;;;6.86;56.60
15604;BME280;7902;49.042;9.092;2023-02-11T10:26:12;100976.63;;;6.73;55.36
15604;BME280;7902;49.042;9.092;2023-02-11T10:28:41;100976.44;;;6.79;56.37
15604;BME280;7902;49.042;9.092;2023-02-11T10:31:12;100972.06;;;6.79;55.41
15604;BME280;7902;49.042;9.092;2023-02-11T10:33:52;100974.75;;;6.78;54.73
15604;BME280;7902;49.042;9.092;2023-02-11T10:36:21;100968.72;;;6.74;54.68
15604;BME280;7902;49.042;9.092;2023-02-11T10:38:48;100968.09;;;6.65;54.87
15604;BME280;7902;49.042;9.092;2023-02-11T10:41:28;100965.81;;;6.85;57.26
15604;BME280;7902;49.042;9.092;2023-02-11T10:43:55;100967.28;;;6.95;56.97
15604;BME280;7902;49.042;9.092;2023-02-11T10:46:28;100968.28;;;6.91;55.44
15604;BME280;7902;49.042;9.092;2023-02-11T10:48:55;100960.19;;;7.00;55.44
15604;BME280;7902;49.042;9.092;2023-02-11T10:54:09;100954.97;;;7.00;57.79
15604;BME280;7902;49.042;9.092;2023-02-11T10:56:43;100954.69;;;7.09;56.80
15604;BME280;7902;49.042;9.092;2023-02-11T11:01:50;100954.47;;;7.17;56.76
15604;BME280;7902;49.042;9.092;2023-02-11T11:06:56;100949.66;;;7.32;56.15
15604;BME280;7902;49.042;9.092;2023-02-11T11:09:28;100954.44;;;7.47;56.00
15604;BME280;7902;49.042;9.092;2023-02-11T11:11:57;100954.34;;;7.49;54.99
15604;BME280;7902;49.042;9.092;2023-02-11T11:14:23;100959.50;;;7.52;57.30
15604;BME280;7902;49.042;9.092;2023-02-11T11:16:54;100953.53;;;7.48;57.06
15604;BME280;7902;49.042;9.092;2023-02-11T11:19:22;100950.09;;;7.46;56.36
15604;BME280;7902;49.042;9.092;2023-02-11T11:21:50;100943.50;;;7.63;55.79
15604;BME280;7902;49.042;9.092;2023-02-11T11:26:52;100958.19;;;7.67;57.96
15604;BME280;7902;49.042;9.092;2023-02-11T11:29:25;100949.34;;;7.71;55.93
15604;BME280;7902;49.042;9.092;2023-02-11T11:31:58;100945.44;;;7.84;56.60
15604;BME280;7902;49.042;9.092;2023-02-11T11:34:40;100938.28;;;7.89;55.86
15604;BME280;7902;49.042;9.092;2023-02-11T11:37:13;100939.75;;;7.98;56.25
15604;BME280;7902;49.042;9.092;2023-02-11T11:39:58;100947.78;;;7.91;56.47
15604;BME280;7902;49.042;9.092;2023-02-11T11:42:31;100944.78;;;8.04;55.60
15604;BME280;7902;49.042;9.092;2023-02-11T11:47:51;100941.84;;;8.14;56.60
15604;BME280;7902;49.042;9.092;2023-02-11T11:50:25;100942.66;;;8.15;55.72
15604;BME280;7902;49.042;9.092;2023-02-11T11:56:05;100942.31;;;8.25;56.16
15604;BME280;7902;49.042;9.092;2023-02-11T11:58:32;100943.94;;;8.03;56.29
15604;BME280;7902;49.042;9.092;2023-02-11T12:06:37;100941.84;;;8.14;55.31
15604;BME280;7902;49.042;9.092;2023-02-11T12:14:50;100946.59;;;8.02;54.98
15604;BME280;7902;49.042;9.092;2023-02-11T12:23:02;100951.19;;;8.21;55.45
15604;BME280;7902;49.042;9.092;2023-02-11T12:25:42;100951.28;;;8.18;55.29
15604;BME280;7902;49.042;9.092;2023-02-11T12:31:04;100948.25;;;8.32;54.95
15604;BME280;7902;49.042;9.092;2023-02-11T12:34:04;100958.00;;;8.25;54.55
15604;BME280;7902;49.042;9.092;2023-02-11T12:48:05;100937.22;;;8.21;54.93
15604;BME280;7902;49.042;9.092;2023-02-11T12:50:47;100933.69;;;8.23;55.25
15604;BME280;7902;49.042;9.092;2023-02-11T12:55:59;100928.19;;;8.31;54.17
15604;BME280;7902;49.042;9.092;2023-02-11T12:58:31;100926.53;;;8.28;53.76
15604;BME280;7902;49.042;9.092;2023-02-11T13:01:09;100915.09;;;8.31;53.69
15604;BME280;7902;49.042;9.092;2023-02-11T13:03:40;100915.75;;;8.38;55.09
15604;BME280;7902;49.042;9.092;2023-02-11T13:06:14;100902.88;;;8.31;55.33
15604;BME280;7902;49.042;9.092;2023-02-11T13:08:44;100911.63;;;8.04;55.13
15604;BME280;7902;49.042;9.092;2023-02-11T13:11:26;100907.34;;;8.28;55.99
15604;BME280;7902;49.042;9.092;2023-02-11T13:14:06;100909.69;;;8.37;55.99
15604;BME280;7902;49.042;9.092;2023-02-11T13:16:40;100894.59;;;8.44;54.91
15604;BME280;7902;49.042;9.092;2023-02-11T13:32:24;100886.66;;;8.47;54.60
15604;BME280;7902;49.042;9.092;2023-02-11T13:37:34;100887.22;;;8.55;55.55
15604;BME280;7902;49.042;9.092;2023-02-11T13:42:57;100890.41;;;8.63;54.75
15604;BME280;7902;49.042;9.092;2023-02-11T13:47:58;100886.56;;;8.73;55.35
15604;BME280;7902;49.042;9.092;2023-02-11T13:50:25;100887.13;;;8.81;55.02
15604;BME280;7902;49.042;9.092;2023-02-11T13:53:00;100897.06;;;8.71;53.56
15604;BME280;7902;49.042;9.092;2023-02-11T13:55:27;100897.72;;;8.78;54.42
15604;BME280;7902;49.042;9.092;2023-02-11T14:03:27;100900.81;;;9.12;55.47
15604;BME280;7902;49.042;9.092;2023-02-11T14:06:14;100894.94;;;9.06;54.19
15604;BME280;7902;49.042;9.092;2023-02-11T14:14:03;100899.88;;;9.13;53.48
15604;BME280;7902;49.042;9.092;2023-02-11T14:19:40;100906.13;;;9.09;53.84
15604;BME280;7902;49.042;9.092;2023-02-11T14:27:04;100908.50;;;9.17;54.44
15604;BME280;7902;49.042;9.092;2023-02-11T14:29:45;100912.00;;;9.16;53.41
15604;BME280;7902;49.042;9.092;2023-02-11T14:32:33;100912.66;;;9.22;53.05
15604;BME280;7902;49.042;9.092;2023-02-11T14:35:05;100912.06;;;9.14;53.80
15604;BME280;7902;49.042;9.092;2023-02-11T14:38:01;100903.75;;;9.27;54.74
15604;BME280;7902;49.042;9.092;2023-02-11T14:40:37;100910.22;;;9.18;53.14
15604;BME280;7902;49.042;9.092;2023-02-11T14:43:11;100916.91;;;9.02;54.16
15604;BME280;7902;49.042;9.092;2023-02-11T14:45:39;100912.88;;;9.16;53.74
15604;BME280;7902;49.042;9.092;2023-02-11T14:48:14;100908.41;;;9.18;53.85
15604;BME280;7902;49.042;9.092;2023-02-11T14:50:56;100915.66;;;9.12;53.33
15604;BME280;7902;49.042;9.092;2023-02-11T14:53:24;100911.34;;;9.11;53.80
15604;BME280;7902;49.042;9.092;2023-02-11T14:55:52;100926.59;;;9.23;54.05
15604;BME280;7902;49.042;9.092;2023-02-11T14:58:21;100922.72;;;9.10;53.02
15604;BME280;7902;49.042;9.092;2023-02-11T15:01:05;100921.66;;;9.15;53.14
15604;BME280;7902;49.042;9.092;2023-02-11T15:03:36;100934.88;;;9.12;54.02
15604;BME280;7902;49.042;9.092;2023-02-11T15:06:15;100919.16;;;9.12;53.05
15604;BME280;7902;49.042;9.092;2023-02-11T15:08:48;100930.75;;;9.05;53.31
15604;BME280;7902;49.042;9.092;2023-02-11T15:11:18;100935.25;;;9.02;53.68
15604;BME280;7902;49.042;9.092;2023-02-11T15:13:45;100934.44;;;9.00;53.86
15604;BME280;7902;49.042;9.092;2023-02-11T15:16:17;100936.50;;;8.92;54.57
15604;BME280;7902;49.042;9.092;2023-02-11T15:18:48;100936.47;;;8.93;53.66
15604;BME280;7902;49.042;9.092;2023-02-11T15:21:25;100936.56;;;8.90;53.10
15604;BME280;7902;49.042;9.092;2023-02-11T15:26:42;100951.84;;;9.02;54.51
15604;BME280;7902;49.042;9.092;2023-02-11T15:29:15;100947.56;;;9.00;54.54
15604;BME280;7902;49.042;9.092;2023-02-11T15:31:41;100936.91;;;9.04;53.59
15604;BME280;7902;49.042;9.092;2023-02-11T15:34:08;100934.91;;;9.11;53.58
15604;BME280;7902;49.042;9.092;2023-02-11T15:36:33;100942.16;;;9.04;53.41